sensor_id;sensor_type;location;lat;lon;timestamp;P1;durP1;ratioP1;P2;durP2;ratioP2
6133;SDS011;3098;42.678;23.364;2023-01-23T00:02:04;4.55;;;2.47;;
6133;SDS011;3098;42.678;23.364;2023-01-23T00:04:33;5.15;;;2.88;;
6133;SDS011;3098;42.678;23.364;2023-01-23T00:07:00;2.83;;;1.88;;
6133;SDS011;3098;42.678;23.364;2023-01-23T00:09:28;4.57;;;2.20;;
6133;SDS011;3098;42.678;23.364;2023-01-23T00:11:58;5.00;;;2.83;;
6133;SDS011;3098;42.678;23.364;2023-01-23T00:14:26;4.38;;;2.85;;
6133;SDS011;3098;42.678;23.364;2023-01-23T00:16:53;2.88;;;1.65;;
6133;SDS011;3098;42.678;23.364;2023-01-23T00:19:23;7.15;;;2.83;;
6133;SDS011;3098;42.678;23.364;2023-01-23T00:21:56;2.33;;;1.67;;
6133;SDS011;3098;42.678;23.364;2023-01-23T00:24:24;8.48;;;2.85;;
6133;SDS011;3098;42.678;23.364;2023-01-23T00:26:54;9.35;;;3.63;;
6133;SDS011;3098;42.678;23.364;2023-01-23T00:29:24;9.32;;;2.85;;
6133;SDS011;3098;42.678;23.364;2023-01-23T00:31:51;6.85;;;3.13;;
6133;SDS011;3098;42.678;23.364;2023-01-23T00:34:19;6.35;;;2.92;;
6133;SDS011;3098;42.678;23.364;2023-01-23T00:36:47;6.32;;;3.03;;
6133;SDS011;3098;42.678;23.364;2023-01-23T00:39:17;4.55;;;3.15;;
6133;SDS011;3098;42.678;23.364;2023-01-23T00:41:46;4.95;;;2.42;;
6133;SDS011;3098;42.678;23.364;2023-01-23T00:44:16;2.30;;;1.48;;
6133;SDS011;3098;42.678;23.364;2023-01-23T00:46:43;8.60;;;3.50;;
6133;SDS011;3098;42.678;23.364;2023-01-23T00:49:12;4.65;;;2.45;;
6133;SDS011;3098;42.678;23.364;2023-01-23T00:51:42;10.02;;;3.08;;
6133;SDS011;3098;42.678;23.364;2023-01-23T00:54:10;9.82;;;3.08;;
6133;SDS011;3098;42.678;23.364;2023-01-23T00:56:40;5.35;;;2.42;;
6133;SDS011;3098;42.678;23.364;2023-01-23T00:59:07;5.32;;;2.85;;
6133;SDS011;3098;42.678;23.364;2023-01-23T01:01:35;7.30;;;3.08;;
6133;SDS011;3098;42.678;23.364;2023-01-23T01:04:05;4.90;;;2.72;;
6133;SDS011;3098;42.678;23.364;2023-01-23T01:06:33;5.03;;;2.60;;
6133;SDS011;3098;42.678;23.364;2023-01-23T01:09:01;5.13;;;2.65;;
6133;SDS011;3098;42.678;23.364;2023-01-23T01:11:30;12.25;;;3.75;;
6133;SDS011;3098;42.678;23.364;2023-01-23T01:14:01;10.13;;;3.90;;
6133;SDS011;3098;42.678;23.364;2023-01-23T01:16:30;9.40;;;3.80;;
6133;SDS011;3098;42.678;23.364;2023-01-23T01:18:58;8.43;;;3.55;;
6133;SDS011;3098;42.678;23.364;2023-01-23T01:21:27;6.35;;;3.10;;
6133;SDS011;3098;42.678;23.364;2023-01-23T01:23:55;8.20;;;2.75;;
6133;SDS011;3098;42.678;23.364;2023-01-23T01:26:24;5.82;;;2.72;;
6133;SDS011;3098;42.678;23.364;2023-01-23T01:28:52;4.45;;;2.53;;
6133;SDS011;3098;42.678;23.364;2023-01-23T01:31:22;6.40;;;2.60;;
6133;SDS011;3098;42.678;23.364;2023-01-23T01:33:50;3.35;;;1.98;;
6133;SDS011;3098;42.678;23.364;2023-01-23T01:36:19;10.18;;;3.00;;
6133;SDS011;3098;42.678;23.364;2023-01-23T01:38:49;4.30;;;2.45;;
6133;SDS011;3098;42.678;23.364;2023-01-23T01:41:18;7.63;;;2.90;;
6133;SDS011;3098;42.678;23.364;2023-01-23T01:43:45;4.22;;;2.30;;
6133;SDS011;3098;42.678;23.364;2023-01-23T01:46:15;10.43;;;2.35;;
6133;SDS011;3098;42.678;23.364;2023-01-23T01:48:51;2.30;;;1.58;;
6133;SDS011;3098;42.678;23.364;2023-01-23T01:51:28;3.90;;;2.05;;
6133;SDS011;3098;42.678;23.364;2023-01-23T01:54:03;4.55;;;2.50;;
6133;SDS011;3098;42.678;23.364;2023-01-23T01:56:41;5.22;;;2.95;;
6133;SDS011;3098;42.678;23.364;2023-01-23T01:59:13;2.60;;;1.65;;
6133;SDS011;3098;42.678;23.364;2023-01-23T02:01:45;5.18;;;2.35;;
6133;SDS011;3098;42.678;23.364;2023-01-23T02:04:19;4.03;;;2.28;;
6133;SDS011;3098;42.678;23.364;2023-01-23T02:06:51;2.47;;;1.85;;
6133;SDS011;3098;42.678;23.364;2023-01-23T02:09:20;3.97;;;1.98;;
6133;SDS011;3098;42.678;23.364;2023-01-23T02:11:51;4.30;;;2.63;;
6133;SDS011;3098;42.678;23.364;2023-01-23T02:14:22;2.85;;;2.05;;
6133;SDS011;3098;42.678;23.364;2023-01-23T02:16:52;3.55;;;2.35;;
6133;SDS011;3098;42.678;23.364;2023-01-23T02:19:39;7.72;;;3.05;;
6133;SDS011;3098;42.678;23.364;2023-01-23T02:22:21;6.05;;;2.75;;
6133;SDS011;3098;42.678;23.364;2023-01-23T02:25:04;6.82;;;2.00;;
6133;SDS011;3098;42.678;23.364;2023-01-23T02:27:47;3.97;;;2.42;;
6133;SDS011;3098;42.678;23.364;2023-01-23T02:30:15;1.98;;;1.25;;
6133;SDS011;3098;42.678;23.364;2023-01-23T02:32:48;1.60;;;1.40;;
6133;SDS011;3098;42.678;23.364;2023-01-23T02:35:21;4.40;;;2.20;;
6133;SDS011;3098;42.678;23.364;2023-01-23T02:37:58;2.25;;;1.90;;
6133;SDS011;3098;42.678;23.364;2023-01-23T02:40:30;5.22;;;1.60;;
6133;SDS011;3098;42.678;23.364;2023-01-23T02:43:03;5.18;;;1.58;;
6133;SDS011;3098;42.678;23.364;2023-01-23T02:45:32;5.68;;;1.20;;
6133;SDS011;3098;42.678;23.364;2023-01-23T02:48:00;2.40;;;1.35;;
6133;SDS011;3098;42.678;23.364;2023-01-23T02:50:30;4.30;;;1.38;;
6133;SDS011;3098;42.678;23.364;2023-01-23T02:52:57;2.35;;;0.93;;
6133;SDS011;3098;42.678;23.364;2023-01-23T02:55:26;2.70;;;1.57;;
6133;SDS011;3098;42.678;23.364;2023-01-23T02:57:58;5.35;;;2.03;;
6133;SDS011;3098;42.678;23.364;2023-01-23T03:00:42;2.35;;;1.40;;
6133;SDS011;3098;42.678;23.364;2023-01-23T03:03:09;1.10;;;0.98;;
6133;SDS011;3098;42.678;23.364;2023-01-23T03:05:37;1.67;;;1.10;;
6133;SDS011;3098;42.678;23.364;2023-01-23T03:08:08;2.50;;;1.75;;
6133;SDS011;3098;42.678;23.364;2023-01-23T03:10:37;1.40;;;1.20;;
6133;SDS011;3098;42.678;23.364;2023-01-23T03:13:05;1.65;;;1.13;;
6133;SDS011;3098;42.678;23.364;2023-01-23T03:15:36;1.70;;;1.30;;
6133;SDS011;3098;42.678;23.364;2023-01-23T03:18:08;2.90;;;1.38;;
6133;SDS011;3098;42.678;23.364;2023-01-23T03:20:37;1.38;;;0.85;;
6133;SDS011;3098;42.678;23.364;2023-01-23T03:23:07;2.00;;;1.15;;
6133;SDS011;3098;42.678;23.364;2023-01-23T03:25:35;2.08;;;1.23;;
6133;SDS011;3098;42.678;23.364;2023-01-23T03:28:06;2.95;;;1.63;;
6133;SDS011;3098;42.678;23.364;2023-01-23T03:30:54;3.25;;;1.35;;
6133;SDS011;3098;42.678;23.364;2023-01-23T03:33:22;1.70;;;1.35;;
6133;SDS011;3098;42.678;23.364;2023-01-23T03:35:49;3.72;;;1.33;;
6133;SDS011;3098;42.678;23.364;2023-01-23T03:38:17;3.50;;;1.13;;
6133;SDS011;3098;42.678;23.364;2023-01-23T03:40:48;7.10;;;1.83;;
6133;SDS011;3098;42.678;23.364;2023-01-23T03:43:33;2.25;;;1.48;;
6133;SDS011;3098;42.678;23.364;2023-01-23T03:46:01;2.83;;;1.38;;
6133;SDS011;3098;42.678;23.364;2023-01-23T03:48:30;1.85;;;1.15;;
6133;SDS011;3098;42.678;23.364;2023-01-23T03:50:57;1.95;;;1.30;;
6133;SDS011;3098;42.678;23.364;2023-01-23T03:53:24;1.88;;;1.15;;
6133;SDS011;3098;42.678;23.364;2023-01-23T03:55:54;3.33;;;1.35;;
6133;SDS011;3098;42.678;23.364;2023-01-23T03:58:21;2.85;;;1.88;;
6133;SDS011;3098;42.678;23.364;2023-01-23T04:00:51;2.55;;;1.80;;
6133;SDS011;3098;42.678;23.364;2023-01-23T04:03:17;1.55;;;1.27;;
6133;SDS011;3098;42.678;23.364;2023-01-23T04:05:47;2.65;;;1.38;;
6133;SDS011;3098;42.678;23.364;2023-01-23T04:08:15;1.10;;;0.75;;
6133;SDS011;3098;42.678;23.364;2023-01-23T04:10:42;2.65;;;1.40;;
6133;SDS011;3098;42.678;23.364;2023-01-23T04:13:09;7.10;;;2.10;;
6133;SDS011;3098;42.678;23.364;2023-01-23T04:15:37;2.33;;;1.52;;
6133;SDS011;3098;42.678;23.364;2023-01-23T04:18:05;2.38;;;1.00;;
6133;SDS011;3098;42.678;23.364;2023-01-23T04:20:36;2.63;;;1.60;;
6133;SDS011;3098;42.678;23.364;2023-01-23T04:23:07;2.78;;;1.20;;
6133;SDS011;3098;42.678;23.364;2023-01-23T04:25:35;2.65;;;1.63;;
6133;SDS011;3098;42.678;23.364;2023-01-23T04:28:07;3.33;;;1.77;;
6133;SDS011;3098;42.678;23.364;2023-01-23T04:30:35;2.43;;;1.07;;
6133;SDS011;3098;42.678;23.364;2023-01-23T04:33:04;1.58;;;1.45;;
6133;SDS011;3098;42.678;23.364;2023-01-23T04:35:33;2.50;;;1.20;;
6133;SDS011;3098;42.678;23.364;2023-01-23T04:38:03;1.55;;;1.00;;
6133;SDS011;3098;42.678;23.364;2023-01-23T04:40:33;2.50;;;1.30;;
6133;SDS011;3098;42.678;23.364;2023-01-23T04:43:00;2.13;;;1.30;;
6133;SDS011;3098;42.678;23.364;2023-01-23T04:45:29;1.70;;;1.27;;
6133;SDS011;3098;42.678;23.364;2023-01-23T04:47:59;1.30;;;0.90;;
6133;SDS011;3098;42.678;23.364;2023-01-23T04:50:28;1.55;;;0.85;;
6133;SDS011;3098;42.678;23.364;2023-01-23T04:52:55;3.58;;;1.13;;
6133;SDS011;3098;42.678;23.364;2023-01-23T04:55:23;7.30;;;0.90;;
6133;SDS011;3098;42.678;23.364;2023-01-23T04:57:54;1.55;;;1.13;;
6133;SDS011;3098;42.678;23.364;2023-01-23T05:00:22;1.57;;;1.17;;
6133;SDS011;3098;42.678;23.364;2023-01-23T05:02:50;3.35;;;1.38;;
6133;SDS011;3098;42.678;23.364;2023-01-23T05:05:18;3.72;;;1.10;;
6133;SDS011;3098;42.678;23.364;2023-01-23T05:07:53;1.55;;;1.20;;
6133;SDS011;3098;42.678;23.364;2023-01-23T05:10:23;3.33;;;1.50;;
6133;SDS011;3098;42.678;23.364;2023-01-23T05:12:54;2.92;;;1.92;;
6133;SDS011;3098;42.678;23.364;2023-01-23T05:15:22;1.23;;;0.82;;
6133;SDS011;3098;42.678;23.364;2023-01-23T05:17:50;1.10;;;0.93;;
6133;SDS011;3098;42.678;23.364;2023-01-23T05:20:17;2.53;;;1.42;;
6133;SDS011;3098;42.678;23.364;2023-01-23T05:22:45;1.23;;;1.10;;
6133;SDS011;3098;42.678;23.364;2023-01-23T05:25:18;2.45;;;1.10;;
6133;SDS011;3098;42.678;23.364;2023-01-23T05:27:46;1.05;;;0.82;;
6133;SDS011;3098;42.678;23.364;2023-01-23T05:30:14;0.98;;;0.90;;
6133;SDS011;3098;42.678;23.364;2023-01-23T05:32:42;1.48;;;1.23;;
6133;SDS011;3098;42.678;23.364;2023-01-23T05:35:09;2.53;;;1.20;;
6133;SDS011;3098;42.678;23.364;2023-01-23T05:37:37;1.25;;;0.88;;
6133;SDS011;3098;42.678;23.364;2023-01-23T05:40:05;2.40;;;1.58;;
6133;SDS011;3098;42.678;23.364;2023-01-23T05:42:33;1.98;;;1.20;;
6133;SDS011;3098;42.678;23.364;2023-01-23T05:45:00;3.88;;;1.13;;
6133;SDS011;3098;42.678;23.364;2023-01-23T05:47:29;3.03;;;1.42;;
6133;SDS011;3098;42.678;23.364;2023-01-23T05:49:56;2.15;;;1.00;;
6133;SDS011;3098;42.678;23.364;2023-01-23T05:52:23;1.58;;;0.95;;
6133;SDS011;3098;42.678;23.364;2023-01-23T05:54:51;0.93;;;0.88;;
6133;SDS011;3098;42.678;23.364;2023-01-23T05:57:18;1.80;;;1.15;;
6133;SDS011;3098;42.678;23.364;2023-01-23T05:59:45;6.18;;;1.50;;
6133;SDS011;3098;42.678;23.364;2023-01-23T06:02:13;1.73;;;1.35;;
6133;SDS011;3098;42.678;23.364;2023-01-23T06:04:42;1.58;;;1.00;;
6133;SDS011;3098;42.678;23.364;2023-01-23T06:07:10;2.25;;;1.20;;
6133;SDS011;3098;42.678;23.364;2023-01-23T06:09:39;7.43;;;1.48;;
6133;SDS011;3098;42.678;23.364;2023-01-23T06:12:06;3.38;;;1.75;;
6133;SDS011;3098;42.678;23.364;2023-01-23T06:14:34;1.65;;;1.13;;
6133;SDS011;3098;42.678;23.364;2023-01-23T06:17:02;3.10;;;1.58;;
6133;SDS011;3098;42.678;23.364;2023-01-23T06:19:28;1.33;;;1.15;;
6133;SDS011;3098;42.678;23.364;2023-01-23T06:21:58;3.08;;;1.17;;
6133;SDS011;3098;42.678;23.364;2023-01-23T06:24:24;1.13;;;0.90;;
6133;SDS011;3098;42.678;23.364;2023-01-23T06:26:52;2.22;;;1.67;;
6133;SDS011;3098;42.678;23.364;2023-01-23T06:29:19;1.48;;;0.93;;
6133;SDS011;3098;42.678;23.364;2023-01-23T06:31:47;9.88;;;1.70;;
6133;SDS011;3098;42.678;23.364;2023-01-23T06:34:15;2.03;;;1.15;;
6133;SDS011;3098;42.678;23.364;2023-01-23T06:36:42;6.22;;;2.42;;
6133;SDS011;3098;42.678;23.364;2023-01-23T06:39:12;2.95;;;2.22;;
6133;SDS011;3098;42.678;23.364;2023-01-23T06:41:40;5.93;;;2.37;;
6133;SDS011;3098;42.678;23.364;2023-01-23T06:44:08;2.80;;;1.52;;
6133;SDS011;3098;42.678;23.364;2023-01-23T06:46:36;4.88;;;2.75;;
6133;SDS011;3098;42.678;23.364;2023-01-23T06:49:03;4.88;;;2.00;;
6133;SDS011;3098;42.678;23.364;2023-01-23T06:51:32;3.55;;;1.75;;
6133;SDS011;3098;42.678;23.364;2023-01-23T06:53:59;3.30;;;2.20;;
6133;SDS011;3098;42.678;23.364;2023-01-23T06:56:28;5.78;;;2.40;;
6133;SDS011;3098;42.678;23.364;2023-01-23T06:58:55;2.70;;;2.00;;
6133;SDS011;3098;42.678;23.364;2023-01-23T07:01:23;5.95;;;2.40;;
6133;SDS011;3098;42.678;23.364;2023-01-23T07:03:51;7.32;;;3.28;;
6133;SDS011;3098;42.678;23.364;2023-01-23T07:06:18;4.00;;;2.07;;
6133;SDS011;3098;42.678;23.364;2023-01-23T07:08:46;3.20;;;1.57;;
6133;SDS011;3098;42.678;23.364;2023-01-23T07:11:14;7.93;;;2.60;;
6133;SDS011;3098;42.678;23.364;2023-01-23T07:13:43;3.50;;;2.00;;
6133;SDS011;3098;42.678;23.364;2023-01-23T07:16:10;3.30;;;1.50;;
6133;SDS011;3098;42.678;23.364;2023-01-23T07:18:37;8.30;;;2.60;;
6133;SDS011;3098;42.678;23.364;2023-01-23T07:21:05;20.30;;;3.50;;
6133;SDS011;3098;42.678;23.364;2023-01-23T07:23:32;6.30;;;2.00;;
6133;SDS011;3098;42.678;23.364;2023-01-23T07:26:00;5.57;;;1.93;;
6133;SDS011;3098;42.678;23.364;2023-01-23T07:28:31;3.50;;;1.90;;
6133;SDS011;3098;42.678;23.364;2023-01-23T07:31:00;5.97;;;2.67;;
6133;SDS011;3098;42.678;23.364;2023-01-23T07:33:28;4.47;;;1.83;;
6133;SDS011;3098;42.678;23.364;2023-01-23T07:35:55;7.17;;;3.03;;
6133;SDS011;3098;42.678;23.364;2023-01-23T07:38:22;8.27;;;3.37;;
6133;SDS011;3098;42.678;23.364;2023-01-23T07:40:50;3.23;;;1.17;;
6133;SDS011;3098;42.678;23.364;2023-01-23T07:43:18;5.57;;;2.47;;
6133;SDS011;3098;42.678;23.364;2023-01-23T07:45:46;6.97;;;2.73;;
6133;SDS011;3098;42.678;23.364;2023-01-23T07:48:15;12.70;;;3.17;;
6133;SDS011;3098;42.678;23.364;2023-01-23T07:50:42;4.55;;;2.78;;
6133;SDS011;3098;42.678;23.364;2023-01-23T07:53:09;5.97;;;2.97;;
6133;SDS011;3098;42.678;23.364;2023-01-23T07:55:37;2.90;;;1.83;;
6133;SDS011;3098;42.678;23.364;2023-01-23T07:58:04;4.40;;;2.23;;
6133;SDS011;3098;42.678;23.364;2023-01-23T08:00:31;3.78;;;2.15;;
6133;SDS011;3098;42.678;23.364;2023-01-23T08:02:58;9.75;;;3.38;;
6133;SDS011;3098;42.678;23.364;2023-01-23T08:05:28;5.70;;;3.27;;
6133;SDS011;3098;42.678;23.364;2023-01-23T08:07:58;7.60;;;1.97;;
6133;SDS011;3098;42.678;23.364;2023-01-23T08:10:25;6.37;;;3.13;;
6133;SDS011;3098;42.678;23.364;2023-01-23T08:12:55;8.30;;;3.57;;
6133;SDS011;3098;42.678;23.364;2023-01-23T08:15:22;4.37;;;2.70;;
6133;SDS011;3098;42.678;23.364;2023-01-23T08:17:50;7.97;;;2.10;;
6133;SDS011;3098;42.678;23.364;2023-01-23T08:20:18;4.10;;;2.30;;
6133;SDS011;3098;42.678;23.364;2023-01-23T08:22:48;5.90;;;2.53;;
6133;SDS011;3098;42.678;23.364;2023-01-23T08:25:16;3.83;;;2.50;;
6133;SDS011;3098;42.678;23.364;2023-01-23T08:27:43;6.73;;;2.23;;
6133;SDS011;3098;42.678;23.364;2023-01-23T08:30:11;3.05;;;1.83;;
6133;SDS011;3098;42.678;23.364;2023-01-23T08:32:39;3.67;;;2.17;;
6133;SDS011;3098;42.678;23.364;2023-01-23T08:35:08;3.57;;;1.00;;
6133;SDS011;3098;42.678;23.364;2023-01-23T08:37:35;1.63;;;1.10;;
6133;SDS011;3098;42.678;23.364;2023-01-23T08:40:08;14.00;;;2.80;;
6133;SDS011;3098;42.678;23.364;2023-01-23T08:42:36;3.93;;;1.87;;
6133;SDS011;3098;42.678;23.364;2023-01-23T08:45:04;7.23;;;2.67;;
6133;SDS011;3098;42.678;23.364;2023-01-23T08:47:32;4.78;;;1.92;;
6133;SDS011;3098;42.678;23.364;2023-01-23T08:50:01;1.27;;;1.08;;
6133;SDS011;3098;42.678;23.364;2023-01-23T08:52:28;5.10;;;2.03;;
6133;SDS011;3098;42.678;23.364;2023-01-23T08:54:56;5.30;;;1.70;;
6133;SDS011;3098;42.678;23.364;2023-01-23T08:57:25;1.73;;;1.20;;
6133;SDS011;3098;42.678;23.364;2023-01-23T08:59:52;3.08;;;2.22;;
6133;SDS011;3098;42.678;23.364;2023-01-23T09:02:20;3.70;;;1.52;;
6133;SDS011;3098;42.678;23.364;2023-01-23T09:04:47;1.20;;;0.80;;
6133;SDS011;3098;42.678;23.364;2023-01-23T09:07:15;2.70;;;1.58;;
6133;SDS011;3098;42.678;23.364;2023-01-23T09:09:43;3.45;;;2.05;;
6133;SDS011;3098;42.678;23.364;2023-01-23T09:12:10;3.78;;;2.08;;
6133;SDS011;3098;42.678;23.364;2023-01-23T09:14:39;3.25;;;1.67;;
6133;SDS011;3098;42.678;23.364;2023-01-23T09:17:07;2.05;;;1.63;;
6133;SDS011;3098;42.678;23.364;2023-01-23T09:19:34;4.65;;;1.27;;
6133;SDS011;3098;42.678;23.364;2023-01-23T09:22:01;3.85;;;1.63;;
6133;SDS011;3098;42.678;23.364;2023-01-23T09:24:29;3.60;;;1.38;;
6133;SDS011;3098;42.678;23.364;2023-01-23T09:26:57;8.93;;;2.17;;
6133;SDS011;3098;42.678;23.364;2023-01-23T09:29:25;5.75;;;1.95;;
6133;SDS011;3098;42.678;23.364;2023-01-23T09:31:54;2.17;;;1.33;;
6133;SDS011;3098;42.678;23.364;2023-01-23T09:34:23;4.63;;;1.23;;
6133;SDS011;3098;42.678;23.364;2023-01-23T09:36:50;2.30;;;1.55;;
6133;SDS011;3098;42.678;23.364;2023-01-23T09:39:18;1.45;;;0.95;;
6133;SDS011;3098;42.678;23.364;2023-01-23T09:41:46;3.85;;;1.23;;
6133;SDS011;3098;42.678;23.364;2023-01-23T09:44:16;1.45;;;1.35;;
6133;SDS011;3098;42.678;23.364;2023-01-23T09:46:49;2.50;;;1.67;;
6133;SDS011;3098;42.678;23.364;2023-01-23T09:49:21;1.45;;;1.02;;
6133;SDS011;3098;42.678;23.364;2023-01-23T09:51:55;3.20;;;1.35;;
6133;SDS011;3098;42.678;23.364;2023-01-23T09:54:28;2.17;;;1.63;;
6133;SDS011;3098;42.678;23.364;2023-01-23T09:57:10;1.95;;;1.33;;
6133;SDS011;3098;42.678;23.364;2023-01-23T09:59:40;2.10;;;1.30;;
6133;SDS011;3098;42.678;23.364;2023-01-23T10:02:13;3.77;;;1.03;;
6133;SDS011;3098;42.678;23.364;2023-01-23T10:04:45;2.38;;;1.30;;
6133;SDS011;3098;42.678;23.364;2023-01-23T10:07:21;1.33;;;1.23;;
6133;SDS011;3098;42.678;23.364;2023-01-23T10:10:02;3.20;;;1.77;;
6133;SDS011;3098;42.678;23.364;2023-01-23T10:12:49;3.97;;;2.13;;
6133;SDS011;3098;42.678;23.364;2023-01-23T10:15:29;0.70;;;0.70;;
6133;SDS011;3098;42.678;23.364;2023-01-23T10:18:09;2.97;;;1.30;;
6133;SDS011;3098;42.678;23.364;2023-01-23T10:20:48;1.90;;;1.20;;
6133;SDS011;3098;42.678;23.364;2023-01-23T10:23:27;5.87;;;1.83;;
6133;SDS011;3098;42.678;23.364;2023-01-23T10:26:11;9.53;;;1.87;;
6133;SDS011;3098;42.678;23.364;2023-01-23T10:28:44;1.90;;;1.50;;
6133;SDS011;3098;42.678;23.364;2023-01-23T10:31:18;2.33;;;1.50;;
6133;SDS011;3098;42.678;23.364;2023-01-23T10:33:55;2.03;;;1.63;;
6133;SDS011;3098;42.678;23.364;2023-01-23T10:36:31;2.73;;;1.57;;
6133;SDS011;3098;42.678;23.364;2023-01-23T10:39:03;3.92;;;1.73;;
6133;SDS011;3098;42.678;23.364;2023-01-23T10:41:35;1.75;;;1.58;;
6133;SDS011;3098;42.678;23.364;2023-01-23T10:44:04;2.83;;;2.13;;
6133;SDS011;3098;42.678;23.364;2023-01-23T10:46:41;2.90;;;1.80;;
6133;SDS011;3098;42.678;23.364;2023-01-23T10:49:23;2.63;;;2.43;;
6133;SDS011;3098;42.678;23.364;2023-01-23T10:51:56;4.20;;;3.27;;
6133;SDS011;3098;42.678;23.364;2023-01-23T10:54:24;4.57;;;2.42;;
6133;SDS011;3098;42.678;23.364;2023-01-23T10:56:57;5.57;;;2.33;;
6133;SDS011;3098;42.678;23.364;2023-01-23T10:59:28;5.47;;;2.40;;
6133;SDS011;3098;42.678;23.364;2023-01-23T11:02:00;6.13;;;2.60;;
6133;SDS011;3098;42.678;23.364;2023-01-23T11:04:46;6.63;;;3.47;;
6133;SDS011;3098;42.678;23.364;2023-01-23T11:07:18;6.47;;;3.37;;
6133;SDS011;3098;42.678;23.364;2023-01-23T11:09:49;5.80;;;2.60;;
6133;SDS011;3098;42.678;23.364;2023-01-23T11:12:18;5.93;;;2.77;;
6133;SDS011;3098;42.678;23.364;2023-01-23T11:14:47;2.40;;;1.73;;
6133;SDS011;3098;42.678;23.364;2023-01-23T11:17:16;3.63;;;2.07;;
6133;SDS011;3098;42.678;23.364;2023-01-23T11:19:46;5.70;;;1.90;;
6133;SDS011;3098;42.678;23.364;2023-01-23T11:25:25;3.73;;;2.23;;
6133;SDS011;3098;42.678;23.364;2023-01-23T11:27:55;4.90;;;2.17;;
6133;SDS011;3098;42.678;23.364;2023-01-23T11:30:37;3.97;;;2.67;;
6133;SDS011;3098;42.678;23.364;2023-01-23T11:33:13;6.17;;;2.23;;
6133;SDS011;3098;42.678;23.364;2023-01-23T11:35:57;4.47;;;2.30;;
6133;SDS011;3098;42.678;23.364;2023-01-23T11:38:32;4.87;;;2.17;;
6133;SDS011;3098;42.678;23.364;2023-01-23T11:41:05;6.80;;;2.23;;
6133;SDS011;3098;42.678;23.364;2023-01-23T11:43:36;4.03;;;2.00;;
6133;SDS011;3098;42.678;23.364;2023-01-23T11:46:09;8.10;;;2.40;;
6133;SDS011;3098;42.678;23.364;2023-01-23T11:48:57;2.75;;;1.67;;
6133;SDS011;3098;42.678;23.364;2023-01-23T11:51:35;3.77;;;2.57;;
6133;SDS011;3098;42.678;23.364;2023-01-23T11:54:19;3.67;;;1.90;;
6133;SDS011;3098;42.678;23.364;2023-01-23T11:57:07;2.43;;;2.03;;
6133;SDS011;3098;42.678;23.364;2023-01-23T11:59:50;5.07;;;2.60;;
6133;SDS011;3098;42.678;23.364;2023-01-23T12:02:32;2.57;;;1.43;;
6133;SDS011;3098;42.678;23.364;2023-01-23T12:05:25;2.87;;;1.80;;
6133;SDS011;3098;42.678;23.364;2023-01-23T12:08:10;2.90;;;2.00;;
6133;SDS011;3098;42.678;23.364;2023-01-23T12:11:02;2.80;;;1.47;;
6133;SDS011;3098;42.678;23.364;2023-01-23T12:13:54;2.57;;;1.73;;
6133;SDS011;3098;42.678;23.364;2023-01-23T12:16:38;3.63;;;1.50;;
6133;SDS011;3098;42.678;23.364;2023-01-23T12:19:26;1.57;;;1.17;;
6133;SDS011;3098;42.678;23.364;2023-01-23T12:22:06;5.73;;;1.60;;
6133;SDS011;3098;42.678;23.364;2023-01-23T12:24:45;2.00;;;1.30;;
6133;SDS011;3098;42.678;23.364;2023-01-23T12:27:26;2.97;;;2.00;;
6133;SDS011;3098;42.678;23.364;2023-01-23T12:30:14;3.90;;;2.13;;
6133;SDS011;3098;42.678;23.364;2023-01-23T12:33:05;5.07;;;2.20;;
6133;SDS011;3098;42.678;23.364;2023-01-23T12:35:46;3.40;;;2.00;;
6133;SDS011;3098;42.678;23.364;2023-01-23T12:38:23;7.03;;;3.22;;
6133;SDS011;3098;42.678;23.364;2023-01-23T12:41:01;6.30;;;2.87;;
6133;SDS011;3098;42.678;23.364;2023-01-23T12:43:41;5.53;;;1.73;;
6133;SDS011;3098;42.678;23.364;2023-01-23T12:46:15;4.80;;;2.90;;
6133;SDS011;3098;42.678;23.364;2023-01-23T12:48:48;8.77;;;3.17;;
6133;SDS011;3098;42.678;23.364;2023-01-23T12:51:22;2.23;;;1.57;;
6133;SDS011;3098;42.678;23.364;2023-01-23T12:53:59;4.63;;;1.57;;
6133;SDS011;3098;42.678;23.364;2023-01-23T12:56:30;5.03;;;2.60;;
6133;SDS011;3098;42.678;23.364;2023-01-23T12:59:04;3.60;;;2.07;;
6133;SDS011;3098;42.678;23.364;2023-01-23T13:01:49;3.47;;;1.90;;
6133;SDS011;3098;42.678;23.364;2023-01-23T13:04:29;5.57;;;2.20;;
6133;SDS011;3098;42.678;23.364;2023-01-23T13:07:17;3.23;;;2.10;;
6133;SDS011;3098;42.678;23.364;2023-01-23T13:09:56;2.83;;;1.97;;
6133;SDS011;3098;42.678;23.364;2023-01-23T13:13:13;5.03;;;1.53;;
6133;SDS011;3098;42.678;23.364;2023-01-23T13:15:44;4.03;;;2.63;;
6133;SDS011;3098;42.678;23.364;2023-01-23T13:18:28;5.53;;;2.67;;
6133;SDS011;3098;42.678;23.364;2023-01-23T13:21:15;3.20;;;2.40;;
6133;SDS011;3098;42.678;23.364;2023-01-23T13:24:24;3.47;;;2.17;;
6133;SDS011;3098;42.678;23.364;2023-01-23T13:36:23;4.60;;;2.80;;
6133;SDS011;3098;42.678;23.364;2023-01-23T13:39:17;4.27;;;2.50;;
6133;SDS011;3098;42.678;23.364;2023-01-23T13:41:48;8.20;;;3.30;;
6133;SDS011;3098;42.678;23.364;2023-01-23T13:44:20;3.17;;;1.97;;
6133;SDS011;3098;42.678;23.364;2023-01-23T13:47:00;5.70;;;2.27;;
6133;SDS011;3098;42.678;23.364;2023-01-23T13:49:53;5.67;;;3.07;;
6133;SDS011;3098;42.678;23.364;2023-01-23T13:52:31;7.37;;;3.73;;
6133;SDS011;3098;42.678;23.364;2023-01-23T13:55:21;4.60;;;2.50;;
6133;SDS011;3098;42.678;23.364;2023-01-23T13:58:09;8.03;;;3.33;;
6133;SDS011;3098;42.678;23.364;2023-01-23T14:00:39;4.47;;;2.43;;
6133;SDS011;3098;42.678;23.364;2023-01-23T14:03:13;10.10;;;3.13;;
6133;SDS011;3098;42.678;23.364;2023-01-23T14:06:06;7.70;;;3.83;;
6133;SDS011;3098;42.678;23.364;2023-01-23T14:08:46;5.50;;;3.30;;
6133;SDS011;3098;42.678;23.364;2023-01-23T14:11:15;6.27;;;3.03;;
6133;SDS011;3098;42.678;23.364;2023-01-23T14:13:47;6.77;;;3.60;;
6133;SDS011;3098;42.678;23.364;2023-01-23T14:16:16;12.30;;;3.67;;
6133;SDS011;3098;42.678;23.364;2023-01-23T14:18:49;5.30;;;3.43;;
6133;SDS011;3098;42.678;23.364;2023-01-23T14:21:30;4.97;;;2.27;;
6133;SDS011;3098;42.678;23.364;2023-01-23T14:24:19;7.30;;;3.23;;
6133;SDS011;3098;42.678;23.364;2023-01-23T14:26:49;10.33;;;3.10;;
6133;SDS011;3098;42.678;23.364;2023-01-23T14:29:19;7.83;;;3.20;;
6133;SDS011;3098;42.678;23.364;2023-01-23T14:31:48;11.10;;;3.43;;
6133;SDS011;3098;42.678;23.364;2023-01-23T14:34:17;13.77;;;4.40;;
6133;SDS011;3098;42.678;23.364;2023-01-23T14:36:57;7.93;;;3.00;;
6133;SDS011;3098;42.678;23.364;2023-01-23T14:39:35;8.33;;;3.77;;
6133;SDS011;3098;42.678;23.364;2023-01-23T14:42:05;2.73;;;1.77;;
6133;SDS011;3098;42.678;23.364;2023-01-23T14:44:35;5.17;;;3.37;;
6133;SDS011;3098;42.678;23.364;2023-01-23T14:47:05;6.47;;;3.10;;
6133;SDS011;3098;42.678;23.364;2023-01-23T14:49:41;7.00;;;2.97;;
6133;SDS011;3098;42.678;23.364;2023-01-23T14:52:19;10.77;;;3.80;;
6133;SDS011;3098;42.678;23.364;2023-01-23T14:54:51;9.23;;;3.50;;
6133;SDS011;3098;42.678;23.364;2023-01-23T14:57:18;9.83;;;3.53;;
6133;SDS011;3098;42.678;23.364;2023-01-23T14:59:47;6.40;;;3.13;;
6133;SDS011;3098;42.678;23.364;2023-01-23T15:02:25;5.23;;;3.07;;
6133;SDS011;3098;42.678;23.364;2023-01-23T15:05:08;11.00;;;3.00;;
6133;SDS011;3098;42.678;23.364;2023-01-23T15:07:44;7.50;;;2.63;;
6133;SDS011;3098;42.678;23.364;2023-01-23T15:10:17;9.77;;;2.30;;
6133;SDS011;3098;42.678;23.364;2023-01-23T15:12:49;6.73;;;2.83;;
6133;SDS011;3098;42.678;23.364;2023-01-23T15:15:20;4.17;;;2.93;;
6133;SDS011;3098;42.678;23.364;2023-01-23T15:17:49;7.43;;;3.57;;
6133;SDS011;3098;42.678;23.364;2023-01-23T15:20:28;7.33;;;2.20;;
6133;SDS011;3098;42.678;23.364;2023-01-23T15:23:12;9.00;;;3.93;;
6133;SDS011;3098;42.678;23.364;2023-01-23T15:25:53;6.17;;;2.73;;
6133;SDS011;3098;42.678;23.364;2023-01-23T15:28:47;7.80;;;3.43;;
6133;SDS011;3098;42.678;23.364;2023-01-23T15:31:20;11.53;;;4.43;;
6133;SDS011;3098;42.678;23.364;2023-01-23T15:33:52;8.00;;;3.77;;
6133;SDS011;3098;42.678;23.364;2023-01-23T15:36:24;4.20;;;2.30;;
6133;SDS011;3098;42.678;23.364;2023-01-23T15:38:53;7.33;;;2.60;;
6133;SDS011;3098;42.678;23.364;2023-01-23T15:44:14;3.43;;;1.87;;
6133;SDS011;3098;42.678;23.364;2023-01-23T15:46:44;6.83;;;2.53;;